< < Back
Terminal Aerodrome Forecast


Current Version              Previous Versions:   1  2  3  4  5  6  7  8  9  

Terminal Aerodrome Forecast

915
FTUS42 KGSP 250500
TAFAND
TAF
KAND 250539Z 2506/2606 11006KT P6SM OVC100
     FM250900 13005KT P6SM OVC016
     FM251400 20009KT P6SM VCTS OVC016CB
     FM251500 23010KT P6SM OVC016 PROB30 2515/2516 4SM TSRA OVC016CB
     FM251900 24016G25KT P6SM BKN045 PROB30 2519/2520 4SM TSRA
      BKN040CB
     FM252100 26016G26KT P6SM FEW250 PROB30 2521/2522 4SM TSRA
      BKN040CB
     FM252200 26014G22KT P6SM FEW250
     FM260100 27008KT P6SM SKC
     FM260500 29004KT P6SM SKC=



Latest METAR

864
SAUS70 KWBC 250900 RRB
MTRAND
METAR KAND 250856Z AUTO 00000KT 10SM OVC010 15/13 A2990 RMK AO2 SLP117
T01500128 56011


USA.gov is the U.S. government's official web portal to all federal, state and local government web resources and services.